createdAt,value
2022-12-12T00:01:57.498Z,-0.82
2022-12-12T00:04:47.502Z,-0.85
2022-12-12T00:07:22.763Z,-0.79
2022-12-12T00:09:51.938Z,-0.94
2022-12-12T00:12:25.456Z,-0.95
2022-12-12T00:14:59.191Z,-0.93
2022-12-12T00:18:15.382Z,-0.95
2022-12-12T00:20:23.933Z,-0.92
2022-12-12T00:23:05.893Z,-0.94
2022-12-12T00:25:44.325Z,-0.91
2022-12-12T00:28:17.809Z,-0.82
2022-12-12T00:31:00.135Z,-0.88
2022-12-12T00:33:44.894Z,-0.89
2022-12-12T00:36:15.785Z,-0.89
2022-12-12T00:38:58.207Z,-0.92
2022-12-12T00:41:34.172Z,-0.93
2022-12-12T00:44:03.490Z,-1.01
2022-12-12T00:46:49.195Z,-1.00
2022-12-12T00:49:30.123Z,-0.93
2022-12-12T00:52:16.549Z,-0.81
2022-12-12T00:55:01.118Z,-0.84
2022-12-12T00:57:40.540Z,-0.86
2022-12-12T01:00:26.395Z,-0.84
2022-12-12T01:03:11.951Z,-0.82
2022-12-12T01:06:08.446Z,-0.74
2022-12-12T01:09:09.417Z,-0.80
2022-12-12T01:11:45.839Z,-0.74
2022-12-12T01:14:37.139Z,-0.69
2022-12-12T01:17:13.943Z,-0.73
2022-12-12T01:19:44.475Z,-0.67
2022-12-12T01:22:16.723Z,-0.67
2022-12-12T01:24:47.295Z,-0.70
2022-12-12T01:27:16.662Z,-0.66
2022-12-12T01:29:45.699Z,-0.57
2022-12-12T01:32:16.281Z,-0.48
2022-12-12T01:34:45.392Z,-0.49
2022-12-12T01:37:13.007Z,-0.43
2022-12-12T01:39:40.630Z,-0.38
2022-12-12T01:42:14.001Z,-0.39
2022-12-12T01:44:45.781Z,-0.39
2022-12-12T01:47:14.579Z,-0.33
2022-12-12T01:49:45.602Z,-0.42
2022-12-12T01:52:16.199Z,-0.39
2022-12-12T01:54:46.625Z,-0.48
2022-12-12T01:57:22.185Z,-0.52
2022-12-12T01:59:50.233Z,-0.63
2022-12-12T02:02:19.596Z,-0.51
2022-12-12T02:04:47.238Z,-0.48
2022-12-12T02:07:15.375Z,-0.50
2022-12-12T02:09:43.069Z,-0.50
2022-12-12T02:12:15.890Z,-0.47
2022-12-12T02:14:46.834Z,-0.52
2022-12-12T02:17:36.957Z,-0.44
2022-12-12T02:20:39.536Z,-0.40
2022-12-12T02:23:43.280Z,-0.43
2022-12-12T02:26:36.557Z,-0.43
2022-12-12T02:29:25.875Z,-0.42
2022-12-12T02:32:00.904Z,-0.34
2022-12-12T02:34:34.513Z,-0.32
2022-12-12T02:37:07.928Z,-0.27
2022-12-12T02:39:41.177Z,-0.28
2022-12-12T02:42:12.317Z,-0.38
2022-12-12T02:44:44.387Z,-0.43
2022-12-12T02:47:16.860Z,-0.40
2022-12-12T02:49:48.584Z,-0.41
2022-12-12T02:52:18.458Z,-0.51
2022-12-12T02:54:46.444Z,-0.51
2022-12-12T02:57:17.755Z,-0.59
2022-12-12T02:59:51.108Z,-0.61
2022-12-12T03:02:50.963Z,-0.57
2022-12-12T03:05:47.456Z,-0.50
2022-12-12T03:08:28.806Z,-0.55
2022-12-12T03:10:58.168Z,-0.52
2022-12-12T03:13:35.084Z,-0.49
2022-12-12T03:16:15.733Z,-0.47
2022-12-12T03:18:52.986Z,-0.50
2022-12-12T03:21:23.481Z,-0.41
2022-12-12T03:23:52.487Z,-0.53
2022-12-12T03:26:23.052Z,-0.51
2022-12-12T03:28:58.960Z,-0.49
2022-12-12T03:31:29.951Z,-0.46
2022-12-12T03:34:00.258Z,-0.42
2022-12-12T03:36:29.689Z,-0.44
2022-12-12T03:39:04.089Z,-0.34
2022-12-12T03:41:41.422Z,-0.36
2022-12-12T03:44:14.725Z,-0.36
2022-12-12T03:46:46.741Z,-0.39
2022-12-12T03:49:23.887Z,-0.42
2022-12-12T03:51:56.876Z,-0.43
2022-12-12T03:54:27.288Z,-0.32
2022-12-12T03:57:02.035Z,-0.28
2022-12-12T03:59:37.620Z,-0.27
2022-12-12T04:02:11.162Z,-0.25
2022-12-12T04:04:42.939Z,-0.20
2022-12-12T04:07:16.727Z,-0.21
2022-12-12T04:10:01.949Z,-0.23
2022-12-12T04:12:53.795Z,-0.39
2022-12-12T04:15:32.810Z,-0.26
2022-12-12T04:18:12.869Z,-0.27
2022-12-12T04:21:03.701Z,-0.15
2022-12-12T04:23:35.623Z,-0.18
2022-12-12T04:26:30.808Z,-0.15
2022-12-12T04:29:04.410Z,-0.20
2022-12-12T04:31:41.780Z,-0.18
2022-12-12T04:34:19.068Z,0.03
2022-12-12T04:36:49.341Z,0.03
2022-12-12T04:41:16.536Z,0.03
2022-12-12T04:42:43.840Z,-0.05
2022-12-12T04:45:18.681Z,-0.07
2022-12-12T04:47:48.400Z,0.07
2022-12-12T04:50:18.717Z,0.25
2022-12-12T04:52:49.514Z,0.36
2022-12-12T04:55:24.690Z,0.60
2022-12-12T04:57:59.943Z,0.41
2022-12-12T05:00:38.667Z,0.13
2022-12-12T05:03:10.958Z,-0.19
2022-12-12T05:05:42.096Z,-0.30
2022-12-12T05:08:15.736Z,-0.28
2022-12-12T05:10:43.877Z,-0.27
2022-12-12T05:13:16.420Z,-0.22
2022-12-12T05:15:45.129Z,-0.30
2022-12-12T05:18:13.301Z,-0.48
2022-12-12T05:20:41.028Z,-0.48
2022-12-12T05:23:08.609Z,-0.42
2022-12-12T05:25:37.571Z,-0.37
2022-12-12T05:28:05.169Z,-0.39
2022-12-12T05:30:32.853Z,-0.46
2022-12-12T05:33:00.427Z,-0.44
2022-12-12T05:35:28.386Z,-0.43
2022-12-12T05:37:56.502Z,-0.46
2022-12-12T05:40:24.265Z,-0.59
2022-12-12T05:42:53.187Z,-0.64
2022-12-12T05:45:20.826Z,-0.63
2022-12-12T05:47:48.586Z,-0.65
2022-12-12T05:50:16.119Z,-0.64
2022-12-12T05:52:43.902Z,-0.67
2022-12-12T05:55:11.700Z,-0.62
2022-12-12T05:57:39.427Z,-0.63
2022-12-12T06:00:10.129Z,-0.70
2022-12-12T06:02:37.846Z,-0.79
2022-12-12T06:05:06.092Z,-0.78
2022-12-12T06:07:33.559Z,-0.76
2022-12-12T06:10:01.097Z,-0.69
2022-12-12T06:12:28.633Z,-0.55
2022-12-12T06:14:56.116Z,-0.50
2022-12-12T06:17:29.708Z,-0.67
2022-12-12T06:20:00.601Z,-0.69
2022-12-12T06:22:28.140Z,-0.75
2022-12-12T06:24:55.704Z,-0.77
2022-12-12T06:27:23.350Z,-0.77
2022-12-12T06:29:51.154Z,-0.77
2022-12-12T06:32:18.812Z,-0.78
2022-12-12T06:34:47.666Z,-0.88
2022-12-12T06:37:17.393Z,-0.90
2022-12-12T06:39:45.314Z,-0.88
2022-12-12T06:42:12.840Z,-0.90
2022-12-12T06:44:40.396Z,-0.87
2022-12-12T06:47:07.959Z,-0.94
2022-12-12T06:49:35.616Z,-0.94
2022-12-12T06:52:04.580Z,-0.84
2022-12-12T06:54:32.162Z,-0.77
2022-12-12T06:56:59.787Z,-0.73
2022-12-12T06:59:29.394Z,-0.65
2022-12-12T07:01:57.109Z,-0.60
2022-12-12T07:04:25.766Z,-0.64
2022-12-12T07:06:53.308Z,-0.63
2022-12-12T07:09:22.198Z,-0.70
2022-12-12T07:11:49.760Z,-0.62
2022-12-12T07:14:17.253Z,-0.61
2022-12-12T07:16:44.746Z,-0.70
2022-12-12T07:19:12.331Z,-0.61
2022-12-12T07:21:39.904Z,-0.59
2022-12-12T07:24:07.723Z,-0.64
2022-12-12T07:26:36.697Z,-0.75
2022-12-12T07:29:05.284Z,-0.77
2022-12-12T07:31:32.900Z,-0.81
2022-12-12T07:34:00.438Z,-0.82
2022-12-12T07:36:27.922Z,-0.88
2022-12-12T07:38:55.459Z,-0.82
2022-12-12T07:41:22.997Z,-0.57
2022-12-12T07:43:52.313Z,-0.38
2022-12-12T07:46:22.185Z,-0.35
2022-12-12T07:48:50.067Z,-0.51
2022-12-12T07:51:17.928Z,-0.78
2022-12-12T07:53:45.804Z,-0.84
2022-12-12T07:56:15.395Z,-0.79
2022-12-12T07:58:43.131Z,-0.72
2022-12-12T08:01:14.867Z,-0.68
2022-12-12T08:03:43.218Z,-0.82
2022-12-12T08:06:10.841Z,-0.79
2022-12-12T08:08:38.388Z,-0.77
2022-12-12T08:11:07.433Z,-0.78
2022-12-12T08:13:36.486Z,-0.61
2022-12-12T08:16:05.395Z,-0.54
2022-12-12T08:18:34.713Z,-0.48
2022-12-12T08:21:02.212Z,-0.52
2022-12-12T08:23:29.720Z,-0.53
2022-12-12T08:25:57.542Z,-0.60
2022-12-12T08:28:25.072Z,-0.58
2022-12-12T08:30:52.680Z,-0.43
2022-12-12T08:33:20.240Z,-0.30
2022-12-12T08:35:49.617Z,-0.19
2022-12-12T08:38:17.146Z,-0.07
2022-12-12T08:40:44.743Z,0.16
2022-12-12T08:43:13.108Z,0.30
2022-12-12T08:45:41.245Z,0.31
2022-12-12T08:48:09.628Z,0.06
2022-12-12T08:50:37.178Z,0.00
2022-12-12T08:53:06.095Z,0.33
2022-12-12T08:55:33.903Z,0.31
2022-12-12T08:58:01.626Z,0.22
2022-12-12T09:00:29.127Z,0.04
2022-12-12T09:02:56.740Z,0.25
2022-12-12T09:05:24.328Z,0.30
2022-12-12T09:07:51.914Z,0.20
2022-12-12T09:10:20.956Z,0.22
2022-12-12T09:12:49.105Z,0.22
2022-12-12T09:15:18.421Z,0.39
2022-12-12T09:17:46.945Z,0.39
2022-12-12T09:20:14.675Z,0.48
2022-12-12T09:22:42.217Z,0.68
2022-12-12T09:25:10.831Z,0.77
2022-12-12T09:27:40.086Z,0.77
2022-12-12T09:30:09.042Z,0.88
2022-12-12T09:32:36.732Z,0.66
2022-12-12T09:35:04.461Z,0.44
2022-12-12T09:37:32.017Z,0.37
2022-12-12T09:39:59.528Z,0.40
2022-12-12T09:42:29.201Z,0.38
2022-12-12T09:45:00.781Z,0.33
2022-12-12T09:47:34.714Z,0.44
2022-12-12T09:50:08.416Z,0.60
2022-12-12T09:52:39.664Z,0.60
2022-12-12T09:55:24.213Z,0.54
2022-12-12T09:57:56.464Z,0.61
2022-12-12T10:00:25.850Z,0.65
2022-12-12T10:03:07.418Z,0.75
2022-12-12T10:05:39.099Z,0.77
2022-12-12T10:08:12.883Z,0.71
2022-12-12T10:10:43.000Z,0.67
2022-12-12T10:13:15.718Z,0.71
2022-12-12T10:15:46.726Z,0.70
2022-12-12T10:18:17.380Z,0.74
2022-12-12T10:20:48.563Z,0.93
2022-12-12T10:23:20.838Z,0.89
2022-12-12T10:25:51.427Z,0.97
2022-12-12T10:28:20.480Z,0.93
2022-12-12T10:31:04.446Z,1.06
2022-12-12T10:33:41.213Z,1.10
2022-12-12T10:36:15.784Z,1.02
2022-12-12T10:38:56.807Z,1.04
2022-12-12T10:41:28.389Z,0.89
2022-12-12T10:44:05.091Z,0.88
2022-12-12T10:46:37.340Z,0.88
2022-12-12T10:49:14.259Z,1.07
2022-12-12T10:51:41.973Z,1.28
2022-12-12T10:54:15.957Z,1.37
2022-12-12T10:57:06.308Z,1.53
2022-12-12T10:59:40.339Z,1.63
2022-12-12T11:02:32.079Z,1.61
2022-12-12T11:05:08.198Z,1.62
2022-12-12T11:07:38.235Z,1.55
2022-12-12T11:10:20.004Z,1.55
2022-12-12T11:12:47.572Z,1.51
2022-12-12T11:15:18.032Z,1.52
2022-12-12T11:17:46.945Z,1.55
2022-12-12T11:20:17.721Z,1.29
2022-12-12T11:22:45.399Z,1.23
2022-12-12T11:25:24.654Z,1.02
2022-12-12T11:27:52.469Z,0.98
2022-12-12T11:30:24.593Z,1.01
2022-12-12T11:32:55.496Z,1.04
2022-12-12T11:35:25.262Z,1.14
2022-12-12T11:37:55.684Z,1.44
2022-12-12T11:40:25.569Z,1.48
2022-12-12T11:42:53.356Z,1.33
2022-12-12T11:45:23.558Z,1.36
2022-12-12T11:47:51.210Z,1.33
2022-12-12T11:50:22.697Z,1.26
2022-12-12T11:52:51.240Z,1.20
2022-12-12T11:55:25.004Z,1.06
2022-12-12T11:58:09.247Z,1.15
2022-12-12T12:00:41.872Z,1.03
2022-12-12T12:03:23.889Z,1.17
2022-12-12T12:06:17.591Z,1.16
2022-12-12T12:08:59.839Z,1.25
2022-12-12T12:11:31.053Z,1.34
2022-12-12T12:14:08.796Z,1.29
2022-12-12T12:16:46.786Z,1.46
2022-12-12T12:19:17.529Z,1.57
2022-12-12T12:21:55.329Z,1.53
2022-12-12T12:24:36.282Z,1.55
2022-12-12T12:27:09.836Z,1.64
2022-12-12T12:29:49.192Z,1.88
2022-12-12T12:32:23.009Z,2.06
2022-12-12T12:35:01.912Z,2.13
2022-12-12T12:37:40.752Z,2.09
2022-12-12T12:40:17.894Z,2.09
2022-12-12T12:42:55.745Z,2.22
2022-12-12T12:45:29.603Z,2.13
2022-12-12T12:48:00.108Z,1.93
2022-12-12T12:50:30.548Z,1.94
2022-12-12T12:53:02.535Z,2.04
2022-12-12T12:55:33.526Z,2.16
2022-12-12T12:58:02.229Z,2.14
2022-12-12T13:00:31.755Z,2.08
2022-12-12T13:03:02.083Z,2.08
2022-12-12T13:05:34.824Z,2.12
2022-12-12T13:08:10.309Z,2.08
2022-12-12T13:10:41.506Z,2.10
2022-12-12T13:13:14.549Z,2.09
2022-12-12T13:15:44.630Z,2.06
2022-12-12T13:18:14.452Z,1.96
2022-12-12T13:20:43.950Z,1.96
2022-12-12T13:23:38.031Z,1.83
2022-12-12T13:26:10.528Z,1.64
2022-12-12T13:28:41.713Z,1.53
2022-12-12T13:31:35.998Z,1.42
2022-12-12T13:34:06.165Z,1.50
2022-12-12T13:36:36.486Z,1.50
2022-12-12T13:39:07.280Z,1.43
2022-12-12T13:42:05.180Z,1.33
2022-12-12T13:44:38.987Z,1.29
2022-12-12T13:47:13.189Z,1.33
2022-12-12T13:49:49.416Z,1.40
2022-12-12T13:52:25.303Z,1.39
2022-12-12T13:54:56.623Z,1.27
2022-12-12T13:57:30.027Z,1.36
2022-12-12T14:00:27.927Z,1.22
2022-12-12T14:03:02.498Z,1.17
2022-12-12T14:05:33.091Z,1.32
2022-12-12T14:08:05.958Z,1.30
2022-12-12T14:10:37.241Z,1.17
2022-12-12T14:13:28.700Z,1.36
2022-12-12T14:16:05.985Z,1.23
2022-12-12T14:18:38.282Z,1.25
2022-12-12T14:21:08.577Z,1.36
2022-12-12T14:23:37.158Z,1.33
2022-12-12T14:29:28.796Z,1.35
2022-12-12T14:32:08.886Z,1.24
2022-12-12T14:34:41.198Z,1.39
2022-12-12T14:37:34.154Z,1.35
2022-12-12T14:40:04.969Z,1.39
2022-12-12T14:43:21.116Z,1.40
2022-12-12T14:45:37.596Z,1.49
2022-12-12T14:48:27.148Z,1.37
2022-12-12T14:51:01.119Z,1.19
2022-12-12T14:53:32.839Z,1.07
2022-12-12T14:56:02.922Z,1.17
2022-12-12T14:58:32.054Z,1.07
2022-12-12T15:01:03.810Z,1.01
2022-12-12T15:03:34.961Z,1.02
2022-12-12T15:06:22.473Z,1.15
2022-12-12T15:08:50.205Z,1.23
2022-12-12T15:11:19.387Z,1.05
2022-12-12T15:13:54.503Z,1.04
2022-12-12T15:16:31.470Z,1.24
2022-12-12T15:18:59.916Z,1.12
2022-12-12T15:21:27.423Z,1.09
2022-12-12T15:23:54.933Z,1.15
2022-12-12T15:26:27.754Z,1.15
2022-12-12T15:28:55.289Z,1.17
2022-12-12T15:31:25.557Z,1.40
2022-12-12T15:33:53.357Z,1.32
2022-12-12T15:36:30.093Z,1.35
2022-12-12T15:39:07.901Z,1.29
2022-12-12T15:41:35.487Z,1.42
2022-12-12T15:44:06.286Z,1.40
2022-12-12T15:46:38.232Z,1.33
2022-12-12T15:49:07.533Z,1.29
2022-12-12T15:51:35.188Z,1.31
2022-12-12T15:54:11.689Z,1.14
2022-12-12T15:56:42.561Z,0.98
2022-12-12T15:59:17.918Z,0.87
2022-12-12T16:01:52.960Z,0.86
2022-12-12T16:04:27.888Z,0.87
2022-12-12T16:07:17.540Z,0.86
2022-12-12T16:10:03.330Z,0.81
2022-12-12T16:12:56.845Z,1.08
2022-12-12T16:15:31.558Z,1.35
2022-12-12T16:18:32.199Z,1.35
2022-12-12T16:21:05.068Z,1.29
2022-12-12T16:23:42.606Z,1.25
2022-12-12T16:26:11.301Z,1.19
2022-12-12T16:28:39.125Z,1.16
2022-12-12T16:31:13.275Z,1.22
2022-12-12T16:33:43.088Z,1.23
2022-12-12T16:36:17.491Z,1.18
2022-12-12T16:38:45.229Z,1.15
2022-12-12T16:41:19.092Z,1.17
2022-12-12T16:43:48.995Z,1.10
2022-12-12T16:46:23.773Z,1.04
2022-12-12T16:48:55.773Z,1.02
2022-12-12T16:51:30.531Z,1.05
2022-12-12T16:54:09.414Z,0.99
2022-12-12T16:56:39.946Z,1.02
2022-12-12T16:59:09.106Z,0.89
2022-12-12T17:01:38.957Z,0.88
2022-12-12T17:04:18.647Z,0.73
2022-12-12T17:06:46.311Z,0.68
2022-12-12T17:09:16.577Z,0.66
2022-12-12T17:11:44.372Z,0.62
2022-12-12T17:14:29.124Z,0.65
2022-12-12T17:16:58.295Z,0.60
2022-12-12T17:19:34.930Z,0.53
2022-12-12T17:22:07.325Z,0.51
2022-12-12T17:24:37.578Z,0.42
2022-12-12T17:27:05.353Z,0.40
2022-12-12T17:29:33.275Z,0.33
2022-12-12T17:32:03.911Z,0.32
2022-12-12T17:34:59.233Z,0.16
2022-12-12T17:38:19.229Z,0.21
2022-12-12T17:40:26.263Z,0.13
2022-12-12T17:43:06.355Z,0.17
2022-12-12T17:45:48.724Z,0.13
2022-12-12T17:48:27.842Z,0.11
2022-12-12T17:51:21.119Z,0.00
2022-12-12T17:53:51.101Z,0.00
2022-12-12T17:56:22.850Z,-0.06
2022-12-12T17:58:53.219Z,-0.13
2022-12-12T18:01:23.544Z,-0.17
2022-12-12T18:03:51.915Z,-0.19
2022-12-12T18:06:22.686Z,-0.26
2022-12-12T18:08:51.248Z,-0.33
2022-12-12T18:11:21.216Z,-0.40
2022-12-12T18:13:51.470Z,-0.49
2022-12-12T18:16:23.766Z,-0.49
2022-12-12T18:18:51.643Z,-0.48
2022-12-12T18:24:09.797Z,-0.58
2022-12-12T18:26:37.472Z,-0.58
2022-12-12T18:29:06.797Z,-0.68
2022-12-12T18:31:35.249Z,-0.65
2022-12-12T18:34:05.092Z,-0.64
2022-12-12T18:36:34.117Z,-0.64
2022-12-12T18:39:02.989Z,-0.61
2022-12-12T18:41:31.593Z,-0.58
2022-12-12T18:43:59.471Z,-0.58
2022-12-12T18:46:27.701Z,-0.66
2022-12-12T18:48:55.414Z,-0.66
2022-12-12T18:51:24.216Z,-0.71
2022-12-12T18:53:55.176Z,-0.81
2022-12-12T18:56:25.020Z,-0.82
2022-12-12T18:58:55.622Z,-0.84
2022-12-12T19:01:25.585Z,-0.93
2022-12-12T19:03:56.301Z,-0.94
2022-12-12T19:06:31.669Z,-1.03
2022-12-12T19:09:04.422Z,-1.03
2022-12-12T19:11:40.784Z,-1.05
2022-12-12T19:14:11.465Z,-1.10
2022-12-12T19:16:39.308Z,-1.12
2022-12-12T19:19:09.318Z,-1.14
2022-12-12T19:21:41.483Z,-1.12
2022-12-12T19:24:12.325Z,-1.17
2022-12-12T19:26:58.317Z,-1.10
2022-12-12T19:29:26.307Z,-1.20
2022-12-12T19:31:58.858Z,-1.16
2022-12-12T19:34:42.291Z,-1.23
2022-12-12T19:37:15.310Z,-1.30
2022-12-12T19:39:45.888Z,-1.29
2022-12-12T19:42:27.381Z,-1.32
2022-12-12T19:44:58.117Z,-1.29
2022-12-12T19:47:27.328Z,-1.25
2022-12-12T19:49:59.479Z,-1.24
2022-12-12T19:52:43.240Z,-1.34
2022-12-12T19:55:26.811Z,-1.27
2022-12-12T19:58:25.342Z,-1.47
2022-12-12T20:00:57.937Z,-1.50
2022-12-12T20:03:27.732Z,-1.50
2022-12-12T20:06:00.201Z,-1.51
2022-12-12T20:08:36.585Z,-1.60
2022-12-12T20:11:09.723Z,-1.71
2022-12-12T20:13:38.259Z,-1.62
2022-12-12T20:16:09.072Z,-1.67
2022-12-12T20:18:40.029Z,-1.69
2022-12-12T20:21:43.481Z,-1.71
2022-12-12T20:24:39.954Z,-1.69
2022-12-12T20:27:00.411Z,-1.76
2022-12-12T20:29:28.743Z,-1.79
2022-12-12T20:31:56.512Z,-1.87
2022-12-12T20:34:25.022Z,-1.86
2022-12-12T20:37:01.747Z,-1.88
2022-12-12T20:39:29.403Z,-1.93
2022-12-12T20:41:57.790Z,-2.00
2022-12-12T20:44:28.948Z,-1.98
2022-12-12T20:46:56.581Z,-2.01
2022-12-12T20:49:28.553Z,-2.06
2022-12-12T20:51:57.614Z,-2.04
2022-12-12T20:54:26.481Z,-1.99
2022-12-12T20:56:54.496Z,-1.99
2022-12-12T20:59:22.292Z,-2.03
2022-12-12T21:01:51.543Z,-2.00
2022-12-12T21:04:19.397Z,-2.01
2022-12-12T21:06:49.643Z,-2.02
2022-12-12T21:09:24.198Z,-2.06
2022-12-12T21:11:52.509Z,-2.17
2022-12-12T21:14:20.214Z,-2.21
2022-12-12T21:16:48.078Z,-2.26
2022-12-12T21:19:18.784Z,-2.33
2022-12-12T21:21:47.070Z,-2.37
2022-12-12T21:24:16.130Z,-2.39
2022-12-12T21:26:48.707Z,-2.43
2022-12-12T21:29:17.423Z,-2.42
2022-12-12T21:31:51.993Z,-2.42
2022-12-12T21:34:23.053Z,-2.49
2022-12-12T21:36:52.979Z,-2.53
2022-12-12T21:39:22.253Z,-2.58
2022-12-12T21:41:51.574Z,-2.52
2022-12-12T21:44:19.841Z,-2.52
2022-12-12T21:46:47.711Z,-2.54
2022-12-12T21:49:26.160Z,-2.48
2022-12-12T21:51:56.683Z,-2.53
2022-12-12T21:54:24.736Z,-2.57
2022-12-12T21:56:52.717Z,-2.56
2022-12-12T21:59:20.350Z,-2.59
2022-12-12T22:01:48.207Z,-2.59
2022-12-12T22:04:19.883Z,-2.66
2022-12-12T22:06:47.632Z,-2.67
2022-12-12T22:09:16.748Z,-2.72
2022-12-12T22:11:49.118Z,-2.76
2022-12-12T22:14:20.156Z,-2.81
2022-12-12T22:16:48.031Z,-2.87
2022-12-12T22:19:16.716Z,-2.91
2022-12-12T22:21:45.827Z,-2.87
2022-12-12T22:24:13.627Z,-2.91
2022-12-12T22:26:44.033Z,-2.94
2022-12-12T22:29:13.577Z,-2.97
2022-12-12T22:31:41.956Z,-2.94
2022-12-12T22:34:13.363Z,-2.97
2022-12-12T22:36:41.597Z,-3.01
2022-12-12T22:39:13.617Z,-3.05
2022-12-12T22:41:42.657Z,-3.15
2022-12-12T22:44:14.148Z,-3.05
2022-12-12T22:46:44.064Z,-3.10
2022-12-12T22:49:13.301Z,-3.07
2022-12-12T22:51:41.128Z,-3.04
2022-12-12T22:54:08.808Z,-3.05
2022-12-12T22:56:37.686Z,-3.10
2022-12-12T22:59:07.353Z,-3.09
2022-12-12T23:01:35.294Z,-3.14
2022-12-12T23:04:03.178Z,-3.12
2022-12-12T23:06:32.622Z,-3.19
2022-12-12T23:09:01.414Z,-3.26
2022-12-12T23:11:30.854Z,-3.35
2022-12-12T23:14:01.292Z,-3.37
2022-12-12T23:16:30.901Z,-3.33
2022-12-12T23:18:59.886Z,-3.35
2022-12-12T23:21:27.870Z,-3.39
2022-12-12T23:23:55.973Z,-3.41
2022-12-12T23:26:25.753Z,-3.36
2022-12-12T23:28:53.572Z,-3.36
2022-12-12T23:31:22.814Z,-3.40
2022-12-12T23:33:54.907Z,-3.45
2022-12-12T23:36:22.646Z,-3.44
2022-12-12T23:38:50.265Z,-3.43
2022-12-12T23:41:17.841Z,-3.43
2022-12-12T23:43:45.494Z,-3.48
2022-12-12T23:46:28.118Z,-3.52
2022-12-12T23:48:58.661Z,-3.52
2022-12-12T23:51:27.640Z,-3.57
2022-12-12T23:53:56.368Z,-3.63
2022-12-12T23:56:23.958Z,-3.63
2022-12-12T23:58:52.627Z,-3.64
